createdAt,value
2018-03-15T00:01:58.781Z,17.80
2018-03-15T00:04:40.851Z,17.60
2018-03-15T00:07:08.416Z,17.60
2018-03-15T00:09:35.962Z,18.33
2018-03-15T00:12:03.499Z,17.07
2018-03-15T00:14:31.058Z,18.87
2018-03-15T00:16:58.706Z,18.60
2018-03-15T00:19:26.228Z,18.17
2018-03-15T00:21:53.771Z,17.50
2018-03-15T00:24:21.300Z,19.83
2018-03-15T00:26:48.933Z,19.70
2018-03-15T00:29:16.485Z,19.90
2018-03-15T00:31:44.037Z,20.67
2018-03-15T00:34:11.544Z,19.67
2018-03-15T00:36:39.064Z,18.77
2018-03-15T00:39:06.603Z,19.90
2018-03-15T00:41:34.111Z,19.67
2018-03-15T00:44:01.670Z,17.60
2018-03-15T00:46:29.216Z,19.73
2018-03-15T00:48:57.000Z,18.70
2018-03-15T00:51:24.517Z,19.20
2018-03-15T00:53:52.053Z,20.70
2018-03-15T00:56:19.577Z,19.23
2018-03-15T00:58:47.090Z,19.60
2018-03-15T01:01:14.617Z,19.30
2018-03-15T01:03:42.144Z,18.60
2018-03-15T01:06:09.675Z,20.50
2018-03-15T01:08:37.226Z,21.57
2018-03-15T01:11:04.721Z,20.00
2018-03-15T01:13:32.263Z,19.70
2018-03-15T01:15:59.798Z,19.80
2018-03-15T01:18:27.391Z,20.87
2018-03-15T01:20:54.860Z,20.03
2018-03-15T01:23:22.393Z,20.70
2018-03-15T01:25:49.891Z,20.60
2018-03-15T01:28:17.425Z,21.40
2018-03-15T01:30:44.959Z,22.67
2018-03-15T01:33:12.788Z,22.47
2018-03-15T01:35:40.372Z,24.37
2018-03-15T01:38:08.228Z,23.37
2018-03-15T01:40:35.719Z,22.53
2018-03-15T01:43:03.250Z,24.30
2018-03-15T01:45:30.756Z,24.50
2018-03-15T01:47:58.674Z,24.57
2018-03-15T01:50:26.199Z,24.13
2018-03-15T01:52:53.720Z,23.70
2018-03-15T01:55:21.328Z,23.77
2018-03-15T01:57:48.841Z,24.00
2018-03-15T02:00:16.411Z,23.00
2018-03-15T02:02:43.962Z,23.50
2018-03-15T02:05:11.498Z,25.67
2018-03-15T02:07:39.353Z,23.17
2018-03-15T02:10:06.868Z,25.10
2018-03-15T02:12:34.416Z,24.60
2018-03-15T02:15:01.944Z,23.03
2018-03-15T02:17:29.471Z,22.40
2018-03-15T02:19:56.987Z,21.90
2018-03-15T02:22:24.512Z,23.10
2018-03-15T02:24:52.043Z,22.40
2018-03-15T02:27:19.563Z,23.03
2018-03-15T02:29:47.085Z,23.33
2018-03-15T02:32:14.616Z,23.77
2018-03-15T02:34:42.419Z,23.07
2018-03-15T02:37:09.949Z,22.60
2018-03-15T02:39:38.370Z,22.80
2018-03-15T02:42:06.228Z,22.07
2018-03-15T02:44:34.193Z,23.77
2018-03-15T02:47:01.788Z,23.17
2018-03-15T02:49:29.620Z,23.13
2018-03-15T02:51:57.392Z,24.53
2018-03-15T02:54:24.913Z,23.33
2018-03-15T02:56:52.431Z,23.20
2018-03-15T02:59:20.012Z,23.97
2018-03-15T03:01:47.558Z,23.77
2018-03-15T03:04:15.078Z,23.90
2018-03-15T03:06:42.621Z,22.43
2018-03-15T03:09:10.261Z,22.33
2018-03-15T03:11:37.721Z,24.17
2018-03-15T03:14:05.259Z,21.90
2018-03-15T03:16:32.772Z,20.63
2018-03-15T03:19:00.287Z,22.57
2018-03-15T03:21:28.116Z,21.37
2018-03-15T03:23:55.662Z,20.07
2018-03-15T03:26:23.172Z,21.87
2018-03-15T03:28:50.702Z,19.53
2018-03-15T03:31:18.233Z,21.40
2018-03-15T03:33:45.764Z,19.80
2018-03-15T03:36:13.363Z,19.57
2018-03-15T03:38:40.953Z,20.37
2018-03-15T03:41:08.513Z,20.63
2018-03-15T03:43:36.053Z,20.43
2018-03-15T03:46:03.930Z,20.13
2018-03-15T03:48:31.507Z,20.63
2018-03-15T03:50:59.078Z,20.80
2018-03-15T03:53:26.613Z,20.10
2018-03-15T03:55:54.160Z,20.70
2018-03-15T03:58:21.681Z,19.83
2018-03-15T04:00:49.286Z,20.43
2018-03-15T04:03:16.880Z,20.60
2018-03-15T04:05:44.408Z,19.23
2018-03-15T04:08:11.947Z,20.43
2018-03-15T04:10:39.469Z,20.20
2018-03-15T04:13:07.000Z,22.00
2018-03-15T04:15:34.544Z,20.63
2018-03-15T04:18:02.160Z,21.13
2018-03-15T04:20:29.646Z,21.50
2018-03-15T04:22:57.161Z,21.50
2018-03-15T04:25:24.679Z,20.63
2018-03-15T04:27:52.187Z,22.67
2018-03-15T04:30:19.711Z,20.57
2018-03-15T04:32:47.232Z,21.90
2018-03-15T04:35:14.751Z,20.67
2018-03-15T04:37:42.284Z,22.50
2018-03-15T04:40:09.860Z,22.60
2018-03-15T04:42:37.375Z,21.73
2018-03-15T04:45:04.942Z,22.90
2018-03-15T04:47:32.462Z,23.80
2018-03-15T04:50:00.026Z,23.20
2018-03-15T04:52:27.552Z,22.17
2018-03-15T04:54:55.093Z,22.10
2018-03-15T04:57:23.250Z,23.50
2018-03-15T04:59:50.781Z,22.97
2018-03-15T05:02:18.381Z,22.43
2018-03-15T05:04:45.930Z,22.93
2018-03-15T05:07:13.457Z,22.90
2018-03-15T05:09:41.048Z,22.67
2018-03-15T05:12:08.577Z,22.50
2018-03-15T05:14:36.132Z,23.07
2018-03-15T05:17:03.686Z,22.47
2018-03-15T05:19:31.717Z,21.30
2018-03-15T05:21:59.245Z,22.67
2018-03-15T05:24:26.838Z,21.13
2018-03-15T05:26:54.345Z,22.00
2018-03-15T05:29:21.876Z,21.23
2018-03-15T05:31:49.410Z,24.20
2018-03-15T05:34:16.981Z,25.10
2018-03-15T05:36:44.501Z,25.07
2018-03-15T05:39:12.033Z,24.77
2018-03-15T05:41:39.564Z,25.33
2018-03-15T05:44:07.153Z,26.37
2018-03-15T05:46:34.721Z,25.93
2018-03-15T05:49:02.331Z,24.80
2018-03-15T05:51:29.867Z,25.97
2018-03-15T05:53:57.403Z,27.30
2018-03-15T05:56:24.959Z,26.90
2018-03-15T05:58:52.490Z,26.10
2018-03-15T06:01:20.024Z,28.17
2018-03-15T06:03:47.532Z,28.60
2018-03-15T06:06:15.076Z,27.87
2018-03-15T06:08:42.619Z,28.90
2018-03-15T06:11:10.176Z,28.30
2018-03-15T06:13:37.720Z,29.70
2018-03-15T06:16:05.262Z,28.27
2018-03-15T06:18:33.054Z,29.80
2018-03-15T06:21:00.585Z,27.23
2018-03-15T06:23:28.123Z,28.27
2018-03-15T06:25:55.642Z,25.90
2018-03-15T06:28:23.188Z,25.23
2018-03-15T06:30:50.718Z,25.60
2018-03-15T06:33:18.249Z,28.17
2018-03-15T06:35:45.782Z,27.07
2018-03-15T06:38:13.304Z,26.87
2018-03-15T06:40:40.868Z,27.57
2018-03-15T06:43:08.391Z,27.47
2018-03-15T06:45:35.910Z,26.40
2018-03-15T06:48:03.431Z,27.10
2018-03-15T06:50:31.159Z,26.27
2018-03-15T06:52:58.674Z,26.30
2018-03-15T06:55:26.252Z,25.50
2018-03-15T06:57:53.751Z,27.00
2018-03-15T07:00:21.742Z,27.20
2018-03-15T07:02:49.257Z,30.40
2018-03-15T07:05:16.794Z,30.03
2018-03-15T07:07:44.320Z,25.40
2018-03-15T07:10:11.925Z,23.53
2018-03-15T07:12:39.436Z,25.47
2018-03-15T07:15:06.966Z,26.03
2018-03-15T07:17:34.514Z,25.57
2018-03-15T07:20:02.045Z,25.37
2018-03-15T07:22:29.554Z,26.50
2018-03-15T07:24:57.082Z,24.37
2018-03-15T07:27:24.725Z,26.43
2018-03-15T07:29:52.789Z,25.17
2018-03-15T07:32:20.326Z,23.97
2018-03-15T07:34:47.871Z,24.60
2018-03-15T07:37:15.414Z,22.77
2018-03-15T07:39:42.989Z,23.50
2018-03-15T07:42:10.527Z,38.67
2018-03-15T07:44:38.091Z,23.47
2018-03-15T07:47:05.652Z,23.30
2018-03-15T07:49:33.179Z,22.17
2018-03-15T07:52:00.730Z,22.50
2018-03-15T07:54:29.083Z,24.47
2018-03-15T07:56:56.637Z,24.57
2018-03-15T07:59:24.169Z,24.27
2018-03-15T08:01:51.775Z,23.63
2018-03-15T08:04:19.387Z,24.97
2018-03-15T08:06:46.974Z,22.90
2018-03-15T08:09:14.492Z,22.63
2018-03-15T08:11:42.038Z,21.53
2018-03-15T08:14:09.604Z,22.70
2018-03-15T08:16:37.187Z,22.57
2018-03-15T08:19:06.119Z,23.30
2018-03-15T08:21:33.646Z,22.20
2018-03-15T08:24:01.214Z,22.17
2018-03-15T08:26:28.774Z,22.27
2018-03-15T08:28:56.336Z,23.43
2018-03-15T08:31:26.032Z,22.83
2018-03-15T08:33:53.824Z,25.63
2018-03-15T08:36:22.990Z,24.53
2018-03-15T08:38:55.146Z,25.07
2018-03-15T08:41:23.998Z,23.37
2018-03-15T08:43:54.576Z,23.93
2018-03-15T08:46:22.322Z,24.27
2018-03-15T08:48:50.045Z,23.77
2018-03-15T08:51:17.596Z,24.00
2018-03-15T08:53:45.857Z,22.67
2018-03-15T08:56:13.403Z,22.90
2018-03-15T08:58:43.101Z,23.27
2018-03-15T09:01:11.797Z,27.00
2018-03-15T09:03:39.901Z,23.30
2018-03-15T09:06:07.432Z,23.90
2018-03-15T09:08:37.603Z,24.67
2018-03-15T09:11:06.396Z,22.30
2018-03-15T09:13:33.926Z,22.40
2018-03-15T09:16:01.488Z,23.10
2018-03-15T09:18:30.159Z,22.50
2018-03-15T09:20:58.480Z,23.37
2018-03-15T09:23:25.982Z,21.70
2018-03-15T09:25:53.849Z,21.90
2018-03-15T09:28:21.480Z,22.27
2018-03-15T09:30:49.893Z,27.73
2018-03-15T09:33:17.655Z,22.73
2018-03-15T09:35:45.403Z,22.50
2018-03-15T09:38:12.979Z,22.13
2018-03-15T09:40:41.064Z,22.30
2018-03-15T09:43:08.609Z,22.90
2018-03-15T09:45:38.917Z,23.23
2018-03-15T09:48:07.869Z,23.33
2018-03-15T09:50:35.418Z,21.10
2018-03-15T09:53:02.970Z,24.13
2018-03-15T09:55:30.501Z,24.17
2018-03-15T09:57:58.079Z,22.60
2018-03-15T10:00:25.641Z,23.23
2018-03-15T10:02:53.201Z,23.00
2018-03-15T10:05:21.063Z,21.30
2018-03-15T10:07:48.606Z,24.13
2018-03-15T10:10:16.237Z,22.03
2018-03-15T10:12:44.040Z,23.60
2018-03-15T10:15:11.582Z,20.90
2018-03-15T10:17:39.154Z,22.50
2018-03-15T10:20:06.811Z,21.20
2018-03-15T10:22:34.525Z,23.37
2018-03-15T10:25:13.607Z,23.23
2018-03-15T10:27:30.547Z,23.00
2018-03-15T10:29:58.798Z,24.17
2018-03-15T10:32:26.507Z,23.83
2018-03-15T10:34:59.732Z,23.53
2018-03-15T10:37:27.419Z,22.33
2018-03-15T10:39:54.977Z,22.80
2018-03-15T10:42:22.870Z,23.00
2018-03-15T10:44:50.444Z,23.10
2018-03-15T10:47:17.992Z,23.53
2018-03-15T10:49:45.549Z,24.40
2018-03-15T10:52:13.130Z,23.80
2018-03-15T10:54:41.497Z,23.37
2018-03-15T10:57:09.134Z,22.53
2018-03-15T10:59:36.638Z,22.90
2018-03-15T11:02:06.166Z,22.17
2018-03-15T11:04:34.437Z,22.90
2018-03-15T11:07:05.202Z,22.57
2018-03-15T11:09:34.558Z,22.10
2018-03-15T11:12:02.474Z,22.80
2018-03-15T11:14:31.043Z,22.80
2018-03-15T11:16:59.809Z,22.00
2018-03-15T11:19:27.537Z,21.73
2018-03-15T11:21:55.079Z,23.80
2018-03-15T11:24:22.836Z,22.33
2018-03-15T11:26:50.659Z,22.90
2018-03-15T11:29:18.234Z,23.47
2018-03-15T11:31:45.786Z,22.13
2018-03-15T11:34:13.340Z,21.93
2018-03-15T11:36:41.078Z,20.80
2018-03-15T11:39:08.940Z,22.60
2018-03-15T11:41:36.549Z,21.73
2018-03-15T11:44:04.475Z,20.60
2018-03-15T11:46:32.167Z,22.00
2018-03-15T11:48:59.791Z,21.53
2018-03-15T11:51:27.423Z,22.87
2018-03-15T11:53:54.968Z,20.90
2018-03-15T11:56:24.586Z,20.77
2018-03-15T11:58:53.394Z,21.40
2018-03-15T12:01:21.202Z,20.97
2018-03-15T12:03:52.578Z,19.90
2018-03-15T12:06:21.430Z,20.53
2018-03-15T12:08:48.971Z,20.90
2018-03-15T12:11:16.531Z,20.37
2018-03-15T12:13:44.139Z,19.90
2018-03-15T12:16:11.991Z,20.60
2018-03-15T12:18:39.516Z,20.37
2018-03-15T12:21:07.194Z,20.10
2018-03-15T12:23:34.718Z,21.13
2018-03-15T12:26:02.252Z,20.73
2018-03-15T12:28:29.888Z,19.70
2018-03-15T12:30:57.424Z,19.90
2018-03-15T12:33:25.108Z,19.20
2018-03-15T12:35:52.640Z,21.30
2018-03-15T12:38:20.537Z,20.30
2018-03-15T12:40:48.040Z,18.80
2018-03-15T12:43:15.670Z,18.30
2018-03-15T12:45:43.529Z,18.27
2018-03-15T12:48:11.122Z,18.57
2018-03-15T12:50:38.642Z,18.83
2018-03-15T12:53:06.162Z,18.60
2018-03-15T12:55:33.707Z,17.90
2018-03-15T12:58:01.233Z,17.10
2018-03-15T13:00:28.856Z,18.57
2018-03-15T13:02:56.436Z,18.03
2018-03-15T13:05:24.541Z,18.60
2018-03-15T13:07:52.790Z,18.00
2018-03-15T13:10:20.441Z,18.40
2018-03-15T13:12:48.853Z,18.50
2018-03-15T13:15:16.388Z,18.40
2018-03-15T13:17:43.941Z,18.47
2018-03-15T13:20:12.752Z,18.23
2018-03-15T13:22:40.842Z,18.20
2018-03-15T13:25:08.478Z,18.60
2018-03-15T13:27:36.833Z,17.17
2018-03-15T13:30:04.422Z,18.63
2018-03-15T13:32:32.470Z,18.10
2018-03-15T13:35:00.336Z,17.90
2018-03-15T13:37:28.171Z,17.10
2018-03-15T13:39:56.602Z,17.43
2018-03-15T13:42:24.138Z,16.47
2018-03-15T13:44:51.946Z,16.47
2018-03-15T13:47:19.787Z,17.27
2018-03-15T13:49:47.690Z,16.30
2018-03-15T13:52:16.377Z,17.30
2018-03-15T13:54:44.044Z,17.93
2018-03-15T13:57:11.649Z,17.53
2018-03-15T13:59:40.299Z,18.07
2018-03-15T14:02:07.924Z,17.27
2018-03-15T14:04:35.540Z,17.27
2018-03-15T14:07:03.069Z,18.07
2018-03-15T14:09:30.635Z,18.03
2018-03-15T14:11:58.295Z,18.03
2018-03-15T14:14:25.840Z,19.27
2018-03-15T14:16:53.396Z,18.30
2018-03-15T14:19:21.033Z,18.80
2018-03-15T14:21:48.586Z,18.93
2018-03-15T14:24:16.158Z,19.00
2018-03-15T14:26:43.828Z,17.57
2018-03-15T14:29:11.340Z,18.60
2018-03-15T14:31:39.184Z,18.90
2018-03-15T14:34:06.755Z,18.43
2018-03-15T14:36:34.306Z,17.60
2018-03-15T14:39:01.813Z,18.57
2018-03-15T14:41:29.333Z,19.13
2018-03-15T14:43:56.878Z,19.27
2018-03-15T14:46:24.494Z,18.87
2018-03-15T14:48:52.005Z,19.50
2018-03-15T14:51:19.513Z,19.70
2018-03-15T14:53:47.041Z,19.83
2018-03-15T14:56:14.582Z,18.70
2018-03-15T14:58:42.084Z,18.63
2018-03-15T15:01:09.646Z,18.57
2018-03-15T15:03:37.684Z,18.20
2018-03-15T15:06:05.467Z,19.33
2018-03-15T15:08:32.997Z,19.07
2018-03-15T15:11:00.536Z,18.87
2018-03-15T15:13:28.094Z,18.97
2018-03-15T15:15:55.630Z,20.00
2018-03-15T15:18:23.153Z,20.90
2018-03-15T15:20:50.723Z,19.73
2018-03-15T15:23:18.226Z,18.40
2018-03-15T15:25:45.736Z,19.47
2018-03-15T15:28:13.260Z,20.20
2018-03-15T15:30:40.788Z,20.37
2018-03-15T15:33:08.622Z,19.27
2018-03-15T15:35:36.164Z,18.97
2018-03-15T15:38:03.707Z,18.37
2018-03-15T15:40:31.292Z,19.33
2018-03-15T15:42:58.800Z,18.43
2018-03-15T15:45:29.361Z,19.27
2018-03-15T15:47:59.592Z,18.33
2018-03-15T15:50:31.592Z,17.97
2018-03-15T15:53:02.221Z,19.00
2018-03-15T15:55:33.389Z,20.10
2018-03-15T15:58:04.703Z,19.30
2018-03-15T16:00:34.819Z,19.70
2018-03-15T16:03:02.402Z,20.03
2018-03-15T16:05:29.957Z,18.43
2018-03-15T16:08:06.152Z,17.50
2018-03-15T16:10:37.901Z,19.00
2018-03-15T16:13:09.739Z,20.13
2018-03-15T16:15:40.692Z,19.93
2018-03-15T16:18:10.027Z,19.60
2018-03-15T16:20:42.363Z,18.70
2018-03-15T16:23:12.007Z,19.60
2018-03-15T16:25:40.789Z,20.47
2018-03-15T16:28:13.832Z,20.00
2018-03-15T16:30:42.294Z,18.93
2018-03-15T16:33:12.580Z,18.77
2018-03-15T16:35:41.476Z,19.33
2018-03-15T16:38:14.722Z,18.07
2018-03-15T16:40:44.682Z,18.07
2018-03-15T16:43:17.212Z,18.80
2018-03-15T16:45:44.933Z,19.50
2018-03-15T16:48:12.471Z,19.57
2018-03-15T16:50:40.085Z,20.07
2018-03-15T16:53:07.614Z,19.13
2018-03-15T16:55:35.213Z,19.30
2018-03-15T16:58:04.227Z,19.27
2018-03-15T17:00:31.802Z,19.20
2018-03-15T17:03:07.255Z,20.30
2018-03-15T17:05:35.613Z,19.80
2018-03-15T17:08:12.262Z,18.80
2018-03-15T17:10:40.917Z,19.27
2018-03-15T17:13:20.827Z,20.87
2018-03-15T17:15:53.473Z,19.30
2018-03-15T17:18:25.285Z,19.90
2018-03-15T17:20:54.139Z,20.27
2018-03-15T17:23:24.481Z,20.50
2018-03-15T17:25:52.430Z,21.27
2018-03-15T17:28:19.958Z,20.70
2018-03-15T17:30:47.492Z,20.97
2018-03-15T17:33:17.256Z,20.43
2018-03-15T17:35:46.979Z,21.20
2018-03-15T17:38:16.296Z,21.90
2018-03-15T17:40:43.814Z,21.40
2018-03-15T17:43:11.629Z,20.27
2018-03-15T17:45:39.731Z,22.97
2018-03-15T17:48:08.199Z,23.30
2018-03-15T17:50:38.450Z,22.10
2018-03-15T17:53:06.418Z,23.67
2018-03-15T17:55:37.224Z,23.60
2018-03-15T17:58:05.306Z,22.17
2018-03-15T18:00:33.772Z,21.57
2018-03-15T18:03:01.658Z,23.20
2018-03-15T18:05:29.472Z,24.30
2018-03-15T18:07:58.176Z,22.17
2018-03-15T18:10:26.496Z,22.93
2018-03-15T18:12:54.459Z,23.60
2018-03-15T18:15:23.005Z,24.23
2018-03-15T18:17:50.809Z,25.80
2018-03-15T18:20:18.705Z,23.40
2018-03-15T18:22:46.304Z,24.10
2018-03-15T18:25:15.205Z,23.43
2018-03-15T18:27:43.822Z,24.23
2018-03-15T18:30:11.577Z,23.87
2018-03-15T18:32:42.119Z,24.83
2018-03-15T18:35:13.217Z,24.93
2018-03-15T18:37:41.692Z,24.53
2018-03-15T18:40:10.440Z,25.57
2018-03-15T18:42:38.598Z,25.53
2018-03-15T18:45:07.863Z,28.60
2018-03-15T18:47:37.569Z,25.93
2018-03-15T18:50:05.720Z,26.50
2018-03-15T18:52:33.533Z,25.30
2018-03-15T18:55:01.499Z,25.47
2018-03-15T18:57:31.613Z,25.37
2018-03-15T18:59:59.362Z,28.10
2018-03-15T19:02:26.916Z,26.90
2018-03-15T19:04:54.949Z,25.27
2018-03-15T19:07:22.494Z,28.77
2018-03-15T19:09:50.012Z,25.17
2018-03-15T19:12:17.553Z,26.57
2018-03-15T19:14:45.055Z,27.40
2018-03-15T19:17:12.719Z,28.07
2018-03-15T19:19:40.248Z,27.50
2018-03-15T19:22:07.751Z,26.97
2018-03-15T19:24:35.387Z,28.90
2018-03-15T19:27:02.896Z,29.60
2018-03-15T19:29:30.441Z,28.23
2018-03-15T19:31:57.956Z,28.40
2018-03-15T19:34:25.484Z,27.67
2018-03-15T19:36:53.008Z,28.63
2018-03-15T19:39:20.526Z,30.50
2018-03-15T19:41:48.071Z,29.17
2018-03-15T19:44:15.911Z,28.30
2018-03-15T19:46:43.419Z,29.43
2018-03-15T19:49:10.941Z,28.20
2018-03-15T19:51:38.647Z,28.43
2018-03-15T19:54:06.215Z,28.50
2018-03-15T19:56:33.717Z,28.60
2018-03-15T19:59:01.280Z,29.03
2018-03-15T20:01:29.122Z,29.53
2018-03-15T20:03:56.680Z,29.00
2018-03-15T20:06:24.208Z,27.57
2018-03-15T20:08:51.792Z,28.43
2018-03-15T20:11:19.445Z,29.57
2018-03-15T20:13:47.020Z,29.60
2018-03-15T20:16:15.810Z,30.20
2018-03-15T20:18:43.325Z,28.70
2018-03-15T20:21:10.829Z,29.43
2018-03-15T20:23:43.983Z,30.30
2018-03-15T20:26:11.550Z,29.90
2018-03-15T20:28:44.597Z,30.50
2018-03-15T20:31:12.128Z,31.50
2018-03-15T20:33:45.345Z,31.90
2018-03-15T20:36:12.926Z,31.80
2018-03-15T20:38:40.455Z,30.53
2018-03-15T20:44:02.073Z,30.03
2018-03-15T20:46:35.168Z,31.40
2018-03-15T20:49:08.586Z,31.37
2018-03-15T20:51:36.168Z,30.50
2018-03-15T20:54:03.700Z,31.07
2018-03-15T20:56:31.210Z,35.23
2018-03-15T20:58:58.824Z,34.30
2018-03-15T21:01:26.513Z,32.77
2018-03-15T21:03:54.032Z,32.70
2018-03-15T21:06:21.592Z,33.57
2018-03-15T21:08:49.092Z,38.13
2018-03-15T21:11:16.657Z,32.83
2018-03-15T21:13:44.373Z,31.60
2018-03-15T21:16:12.161Z,34.37
2018-03-15T21:18:39.689Z,33.13
2018-03-15T21:21:07.214Z,32.60
2018-03-15T21:23:34.746Z,32.67
2018-03-15T21:26:02.280Z,35.20
2018-03-15T21:28:30.184Z,35.43
2018-03-15T21:30:57.712Z,34.17
2018-03-15T21:33:25.250Z,34.90
2018-03-15T21:35:53.155Z,35.07
2018-03-15T21:38:20.730Z,34.37
2018-03-15T21:40:48.262Z,34.23
2018-03-15T21:43:15.763Z,34.77
2018-03-15T21:45:43.285Z,35.70
2018-03-15T21:48:10.809Z,35.80
2018-03-15T21:50:38.343Z,34.30
2018-03-15T21:53:05.859Z,33.73
2018-03-15T21:55:33.395Z,34.80
2018-03-15T21:58:00.900Z,34.90
2018-03-15T22:00:28.467Z,34.67
2018-03-15T22:02:56.023Z,34.70
2018-03-15T22:05:23.595Z,34.03
2018-03-15T22:07:51.120Z,35.53
2018-03-15T22:10:18.772Z,36.90
2018-03-15T22:12:46.295Z,34.00
2018-03-15T22:15:14.117Z,36.10
2018-03-15T22:17:41.619Z,35.13
2018-03-15T22:20:09.167Z,44.80
2018-03-15T22:22:36.712Z,35.60
2018-03-15T22:25:04.295Z,36.23
2018-03-15T22:27:31.799Z,39.30
2018-03-15T22:29:59.590Z,38.20
2018-03-15T22:32:27.122Z,35.00
2018-03-15T22:34:54.654Z,37.27
2018-03-15T22:37:22.198Z,36.87
2018-03-15T22:39:49.700Z,37.70
2018-03-15T22:42:17.232Z,37.40
2018-03-15T22:44:44.736Z,35.73
2018-03-15T22:47:12.283Z,37.87
2018-03-15T22:49:39.787Z,38.07
2018-03-15T22:52:09.491Z,36.50
2018-03-15T22:54:37.040Z,36.37
2018-03-15T22:57:04.580Z,36.83
2018-03-15T22:59:32.095Z,39.50
2018-03-15T23:01:59.631Z,36.90
2018-03-15T23:04:27.387Z,35.27
2018-03-15T23:06:54.930Z,37.70
2018-03-15T23:09:22.451Z,36.23
2018-03-15T23:11:50.023Z,35.67
2018-03-15T23:14:17.524Z,37.03
2018-03-15T23:16:45.059Z,35.63
2018-03-15T23:19:12.560Z,37.47
2018-03-15T23:21:40.088Z,39.20
2018-03-15T23:24:07.874Z,36.17
2018-03-15T23:26:35.398Z,35.83
2018-03-15T23:29:02.929Z,37.20
2018-03-15T23:31:30.474Z,34.90
2018-03-15T23:33:58.009Z,35.80
2018-03-15T23:36:25.560Z,33.43
2018-03-15T23:38:54.116Z,33.53
2018-03-15T23:41:21.693Z,33.20
2018-03-15T23:43:49.248Z,33.30
2018-03-15T23:46:16.780Z,34.23
2018-03-15T23:48:44.290Z,33.13
2018-03-15T23:51:11.976Z,35.03
2018-03-15T23:53:39.476Z,33.37
2018-03-15T23:56:07.003Z,31.43
2018-03-15T23:58:34.514Z,35.20
